Fords Prairie, Washington
Current Conditions -  °F | °C
As of 6:55 PM on Tuesday 25 Nov 2014 (Local Time) from KCLS Reporting Station
Haze Haze  
Wind Chill: 57°   Ceiling: NA
Heat Index: 57°   Visibility: 5mi
Dew Point: 55°   Wind: 9mph
Humidity: 94%   Direction: 150°SSE
Pressure: 30.23"   Gusts: NA
Location:  46.7386°N, 122.944°W
Report Text: KCLS 260255Z AUTO 15008KT 5SM BR 14/13 A3023 RMK AO2
Loading
Personal Weather Stations






























Interactive Weather Map New forecast layout! Learn more

10-Day Weather Forecast

Advertisements
Track Severe Weather on mobile